Time;durP1;ratioP1;P1;durP2;ratioP2;P2;SDS_P1;SDS_P2;PMS_P1;PMS_P2;Temp;Humidity;BMP_temperature;BMP_pressure;BME280_temperature;BME280_humidity;BME280_pressure;Samples;Min_cycle;Max_cycle;Signal;HPM_P1;HPM_P2
2024/01/17 00:00:08;;;;;;;13.32;7.00;;;1.40;82.90;;;;;;5051823;28;20374;-33
2024/01/17 00:02:33;;;;;;;11.77;6.22;;;1.30;82.90;;;;;;5051524;28;20029;-32
2024/01/17 00:04:59;;;;;;;12.75;6.90;;;1.30;82.90;;;;;;5051234;28;20362;-32
2024/01/17 00:07:24;;;;;;;11.40;6.40;;;1.30;83.10;;;;;;5051374;28;20082;-32
2024/01/17 00:09:50;;;;;;;13.68;7.38;;;1.20;83.10;;;;;;5051399;28;20028;-39
2024/01/17 00:12:16;;;;;;;13.63;7.07;;;1.20;83.10;;;;;;5051395;28;20621;-31
2024/01/17 00:14:42;;;;;;;14.73;7.50;;;1.10;83.10;;;;;;5051225;28;20025;-34
2024/01/17 00:17:08;;;;;;;13.32;6.30;;;1.10;83.20;;;;;;5051191;28;20033;-32
2024/01/17 00:19:34;;;;;;;12.77;6.80;;;1.10;83.30;;;;;;5051281;28;20036;-31
2024/01/17 00:22:00;;;;;;;18.88;7.28;;;1.10;83.20;;;;;;5051207;28;20029;-31
2024/01/17 00:24:26;;;;;;;12.15;6.65;;;1.10;83.10;;;;;;5051296;28;20423;-31
2024/01/17 00:26:51;;;;;;;15.52;7.10;;;1.00;83.10;;;;;;5051049;28;20090;-33
2024/01/17 00:29:17;;;;;;;12.10;6.13;;;1.00;83.20;;;;;;5051352;28;20059;-31
2024/01/17 00:31:43;;;;;;;14.18;6.60;;;1.00;83.30;;;;;;5051075;28;20021;-32
2024/01/17 00:34:08;;;;;;;12.73;6.78;;;1.00;83.30;;;;;;5050828;28;20091;-33
2024/01/17 00:36:34;;;;;;;12.75;7.00;;;1.00;83.30;;;;;;5050981;28;20033;-31
2024/01/17 00:39:00;;;;;;;11.30;6.75;;;0.90;83.20;;;;;;5051145;28;20539;-33
2024/01/17 00:41:25;;;;;;;10.90;6.32;;;0.90;83.30;;;;;;5051249;28;20056;-36
2024/01/17 00:43:51;;;;;;;14.70;7.00;;;0.90;83.40;;;;;;5050961;28;20025;-36
2024/01/17 00:46:18;;;;;;;8.93;6.10;;;0.90;83.50;;;;;;5051131;28;20079;-33
2024/01/17 00:48:43;;;;;;;12.43;6.22;;;0.90;83.60;;;;;;5050968;28;20021;-35
2024/01/17 00:51:09;;;;;;;10.45;5.93;;;0.90;83.70;;;;;;5050822;28;20062;-33
2024/01/17 00:53:35;;;;;;;13.10;6.70;;;0.90;83.70;;;;;;5050930;28;20061;-34
2024/01/17 00:56:00;;;;;;;11.02;5.93;;;0.90;83.70;;;;;;5050730;28;20363;-33
2024/01/17 00:58:26;;;;;;;11.25;6.70;;;0.90;83.70;;;;;;5050813;28;20029;-31
2024/01/17 01:00:51;;;;;;;12.23;5.68;;;0.90;83.70;;;;;;5051123;28;20036;-32
2024/01/17 01:03:17;;;;;;;11.32;5.95;;;0.90;83.60;;;;;;5052772;28;20029;-31
2024/01/17 01:05:43;;;;;;;10.80;6.07;;;0.90;83.70;;;;;;5054687;28;20394;-31
2024/01/17 01:08:08;;;;;;;9.93;6.20;;;0.90;83.60;;;;;;5054561;28;20053;-31
2024/01/17 01:10:34;;;;;;;12.63;6.50;;;0.90;83.50;;;;;;5054652;28;20031;-31
2024/01/17 01:13:00;;;;;;;9.75;6.10;;;0.90;83.50;;;;;;5054526;28;20394;-35
2024/01/17 01:15:25;;;;;;;12.32;6.22;;;0.90;83.60;;;;;;5054381;28;20021;-33
2024/01/17 01:17:51;;;;;;;9.82;6.10;;;0.90;83.60;;;;;;5054672;28;20033;-35
2024/01/17 01:20:16;;;;;;;12.07;6.30;;;0.90;83.60;;;;;;5054621;28;20028;-32
2024/01/17 01:22:42;;;;;;;9.45;6.15;;;0.90;83.50;;;;;;5054394;28;20025;-33
2024/01/17 01:25:08;;;;;;;13.27;6.32;;;0.90;83.50;;;;;;5054324;28;20025;-31
2024/01/17 01:27:34;;;;;;;13.70;6.18;;;0.90;83.50;;;;;;5054340;28;20063;-32
2024/01/17 01:29:59;;;;;;;12.57;6.60;;;1.00;83.50;;;;;;5054656;28;20415;-34
2024/01/17 01:32:25;;;;;;;13.55;6.55;;;0.90;83.50;;;;;;5054193;28;20221;-36
2024/01/17 01:34:50;;;;;;;12.27;6.43;;;0.90;83.30;;;;;;5053978;28;20123;-31
2024/01/17 01:37:16;;;;;;;9.95;5.70;;;0.90;83.40;;;;;;5054079;28;20032;-31
2024/01/17 01:39:42;;;;;;;14.93;6.05;;;0.90;83.50;;;;;;5054457;28;20036;-32
2024/01/17 01:42:07;;;;;;;11.07;5.47;;;0.90;83.60;;;;;;5054145;28;20032;-31
2024/01/17 01:44:33;;;;;;;10.77;5.72;;;0.80;83.60;;;;;;5054029;28;20379;-34
2024/01/17 01:46:59;;;;;;;10.38;6.13;;;0.80;83.70;;;;;;5053833;28;20055;-31
2024/01/17 01:49:26;;;;;;;11.00;5.32;;;0.80;83.80;;;;;;5054300;28;20108;-31
2024/01/17 01:51:53;;;;;;;7.90;5.47;;;0.80;83.90;;;;;;5053775;28;20023;-34
2024/01/17 01:54:21;;;;;;;8.60;5.50;;;0.80;83.90;;;;;;5054049;28;20017;-33
2024/01/17 01:56:48;;;;;;;13.32;5.80;;;0.70;83.90;;;;;;5053483;28;20052;-33
2024/01/17 01:59:17;;;;;;;10.05;5.80;;;0.70;84.00;;;;;;5053430;28;20033;-32
2024/01/17 02:01:42;;;;;;;10.40;6.18;;;0.70;84.00;;;;;;5052863;28;20021;-35
2024/01/17 02:04:09;;;;;;;6.85;5.10;;;0.70;84.00;;;;;;5053796;28;20062;-36
2024/01/17 02:06:37;;;;;;;10.25;5.68;;;0.70;84.00;;;;;;5051848;28;20037;-33
2024/01/17 02:09:04;;;;;;;10.75;5.72;;;0.70;84.20;;;;;;5053547;28;20470;-32
2024/01/17 02:11:30;;;;;;;12.18;5.32;;;0.70;84.20;;;;;;5053607;28;20393;-34
2024/01/17 02:13:56;;;;;;;10.75;5.55;;;0.60;84.20;;;;;;5052666;28;20052;-31
2024/01/17 02:16:25;;;;;;;8.75;5.55;;;0.60;84.20;;;;;;5052845;28;20076;-34
2024/01/17 02:18:52;;;;;;;11.82;6.03;;;0.60;84.20;;;;;;5053254;28;20024;-31
2024/01/17 02:21:18;;;;;;;10.10;5.22;;;0.60;84.30;;;;;;5053193;28;20032;-31
2024/01/17 02:23:47;;;;;;;8.13;5.30;;;0.50;84.30;;;;;;5053401;28;20021;-33
2024/01/17 02:26:13;;;;;;;10.05;5.57;;;0.50;84.30;;;;;;5053063;28;20021;-36
2024/01/17 02:28:39;;;;;;;11.38;5.40;;;0.50;84.40;;;;;;5052953;28;20410;-32
2024/01/17 02:31:05;;;;;;;8.35;5.43;;;0.50;84.40;;;;;;5053007;28;20481;-33
2024/01/17 02:33:31;;;;;;;8.68;5.28;;;0.50;84.50;;;;;;5052815;28;20101;-31
2024/01/17 02:35:57;;;;;;;12.32;5.95;;;0.40;84.40;;;;;;5052717;28;20029;-31
2024/01/17 02:38:22;;;;;;;10.02;5.75;;;0.40;84.50;;;;;;5053212;28;20112;-32
2024/01/17 02:40:48;;;;;;;10.40;5.40;;;0.40;84.50;;;;;;5052830;28;20112;-34
2024/01/17 02:43:14;;;;;;;9.65;5.70;;;0.40;84.50;;;;;;5052790;28;20504;-31
2024/01/17 02:45:39;;;;;;;12.25;5.90;;;0.40;84.50;;;;;;5052731;28;20029;-32
2024/01/17 02:48:05;;;;;;;10.85;5.82;;;0.40;84.50;;;;;;5052875;28;20040;-32
2024/01/17 02:50:32;;;;;;;11.02;5.80;;;0.40;85.20;;;;;;5052708;28;20454;-32
2024/01/17 02:52:57;;;;;;;12.68;6.32;;;0.30;85.10;;;;;;5053325;28;20029;-33
2024/01/17 02:55:23;;;;;;;11.73;5.80;;;0.30;84.50;;;;;;5052505;28;20350;-32
2024/01/17 02:57:52;;;;;;;12.38;5.88;;;0.30;84.50;;;;;;5052480;28;20444;-35
2024/01/17 03:00:19;;;;;;;11.20;5.80;;;0.30;84.50;;;;;;5052899;28;20534;-33
2024/01/17 03:02:44;;;;;;;11.60;5.75;;;0.30;84.50;;;;;;5052661;28;20021;-31
2024/01/17 03:05:10;;;;;;;12.57;5.85;;;0.30;84.60;;;;;;5052267;28;20410;-31
2024/01/17 03:07:36;;;;;;;13.23;5.75;;;0.30;84.60;;;;;;5051019;28;20028;-35
2024/01/17 03:10:02;;;;;;;10.07;5.72;;;0.30;84.60;;;;;;5052324;28;20029;-33
2024/01/17 03:12:28;;;;;;;9.63;5.97;;;0.30;84.60;;;;;;5052601;28;20334;-31
2024/01/17 03:14:53;;;;;;;8.77;5.65;;;0.30;84.50;;;;;;5052558;28;20021;-32
2024/01/17 03:17:19;;;;;;;12.00;6.32;;;0.30;84.50;;;;;;5052145;28;20060;-31
2024/01/17 03:19:46;;;;;;;9.80;5.82;;;0.30;84.50;;;;;;5052243;28;20033;-31
2024/01/17 03:22:12;;;;;;;10.93;5.70;;;0.20;84.50;;;;;;5052357;28;20071;-32
2024/01/17 03:24:38;;;;;;;9.50;6.00;;;0.30;84.50;;;;;;5052149;28;20033;-35
2024/01/17 03:27:03;;;;;;;9.68;5.38;;;0.30;84.50;;;;;;5051663;28;20381;-49
2024/01/17 03:29:29;;;;;;;11.98;5.97;;;0.30;84.50;;;;;;5052154;28;20028;-34
2024/01/17 03:31:55;;;;;;;10.80;6.00;;;0.30;84.50;;;;;;5051959;28;20029;-33
2024/01/17 03:34:20;;;;;;;11.70;5.60;;;0.30;84.40;;;;;;5050725;28;20056;-31
2024/01/17 03:36:46;;;;;;;11.73;5.82;;;0.30;84.40;;;;;;5051779;28;20057;-30
2024/01/17 03:39:12;;;;;;;12.07;6.03;;;0.30;84.40;;;;;;5051753;28;20036;-33
2024/01/17 03:41:38;;;;;;;8.45;5.55;;;0.30;84.30;;;;;;5051880;28;20107;-33
2024/01/17 03:44:04;;;;;;;12.10;6.43;;;0.30;84.30;;;;;;5052130;28;20029;-32
2024/01/17 03:46:29;;;;;;;15.82;6.38;;;0.30;84.30;;;;;;5051798;28;20432;-32
2024/01/17 03:48:55;;;;;;;10.70;5.50;;;0.30;84.30;;;;;;5051560;28;20054;-30
2024/01/17 03:51:20;;;;;;;11.93;5.68;;;0.30;84.30;;;;;;5051647;28;20346;-30
2024/01/17 03:53:49;;;;;;;13.07;5.95;;;0.30;84.30;;;;;;5051619;28;20033;-31
2024/01/17 03:56:15;;;;;;;10.23;5.63;;;0.30;84.30;;;;;;5051407;28;20143;-31
2024/01/17 03:58:41;;;;;;;11.63;5.88;;;0.40;84.30;;;;;;5051410;28;20112;-34
2024/01/17 04:01:10;;;;;;;13.15;5.88;;;0.30;84.20;;;;;;5051655;28;20159;-31
2024/01/17 04:03:36;;;;;;;10.27;5.80;;;0.40;84.20;;;;;;5051367;28;20078;-31
2024/01/17 04:06:03;;;;;;;12.07;6.10;;;0.40;84.20;;;;;;5051578;28;20112;-31
2024/01/17 04:08:28;;;;;;;9.82;6.20;;;0.40;84.20;;;;;;5051492;28;20039;-30
2024/01/17 04:10:54;;;;;;;11.20;5.97;;;0.40;84.20;;;;;;5051327;28;20021;-34
2024/01/17 04:13:20;;;;;;;10.95;5.93;;;0.40;84.20;;;;;;5051355;28;20103;-34
2024/01/17 04:15:45;;;;;;;11.38;5.70;;;0.40;84.20;;;;;;5051161;28;20058;-31
2024/01/17 04:18:11;;;;;;;12.77;5.80;;;0.40;84.30;;;;;;5051503;28;20032;-32
2024/01/17 04:20:37;;;;;;;10.98;5.30;;;0.30;84.20;;;;;;5051322;28;20073;-30
2024/01/17 04:23:06;;;;;;;7.40;5.18;;;0.30;84.20;;;;;;5051085;28;20025;-33
2024/01/17 04:25:32;;;;;;;11.05;5.50;;;0.30;84.20;;;;;;5051204;28;20049;-33
2024/01/17 04:27:57;;;;;;;14.52;5.88;;;0.30;84.20;;;;;;5051041;28;20033;-33
2024/01/17 04:30:24;;;;;;;11.25;5.32;;;0.30;84.20;;;;;;5051311;28;20037;-34
2024/01/17 04:32:49;;;;;;;10.00;5.70;;;0.30;84.20;;;;;;5051039;28;20021;-34
2024/01/17 04:35:21;;;;;;;14.30;5.70;;;0.20;84.20;;;;;;5050710;28;20059;-32
2024/01/17 04:37:46;;;;;;;10.60;5.68;;;0.20;84.20;;;;;;5052067;28;20136;-34
2024/01/17 04:40:12;;;;;;;8.65;5.25;;;0.20;84.20;;;;;;5055382;28;20104;-33
2024/01/17 04:42:38;;;;;;;10.02;5.85;;;0.20;84.80;;;;;;5055231;28;20033;-32
2024/01/17 04:45:04;;;;;;;11.95;5.78;;;0.20;84.20;;;;;;5055026;28;20033;-34
2024/01/17 04:47:30;;;;;;;10.98;5.88;;;0.20;84.20;;;;;;5055358;28;20558;-31
2024/01/17 04:49:56;;;;;;;11.85;5.72;;;0.20;84.10;;;;;;5055074;28;20024;-32
2024/01/17 04:52:22;;;;;;;9.48;5.60;;;0.30;84.20;;;;;;5055125;28;20021;-32
2024/01/17 04:54:48;;;;;;;13.23;5.50;;;0.30;84.20;;;;;;5055029;28;20091;-32
2024/01/17 04:57:14;;;;;;;11.05;5.47;;;0.30;84.20;;;;;;5055049;28;20401;-32
2024/01/17 04:59:40;;;;;;;8.07;5.00;;;0.30;84.10;;;;;;5053769;28;20031;-32
2024/01/17 05:02:06;;;;;;;9.85;5.78;;;0.30;84.10;;;;;;5053385;28;20457;-34
2024/01/17 05:04:31;;;;;;;12.55;5.95;;;0.30;84.10;;;;;;5053457;28;20029;-32
2024/01/17 05:06:57;;;;;;;9.02;5.55;;;0.30;84.10;;;;;;5054549;28;20087;-33
2024/01/17 05:09:22;;;;;;;13.13;5.68;;;0.30;84.10;;;;;;5054664;28;20052;-34
2024/01/17 05:11:48;;;;;;;11.52;5.68;;;0.30;84.00;;;;;;5054614;28;20119;-32
2024/01/17 05:14:14;;;;;;;10.63;5.93;;;0.30;84.10;;;;;;5053298;28;20020;-34
2024/01/17 05:16:40;;;;;;;11.52;6.20;;;0.30;84.10;;;;;;5054705;28;20021;-34
2024/01/17 05:19:06;;;;;;;9.40;5.85;;;0.30;84.10;;;;;;5054486;28;20079;-34
2024/01/17 05:21:32;;;;;;;8.43;5.55;;;0.30;84.10;;;;;;5054363;28;20037;-33
2024/01/17 05:23:57;;;;;;;10.60;5.47;;;0.30;84.10;;;;;;5054323;28;20108;-34
2024/01/17 05:26:23;;;;;;;12.52;5.85;;;0.30;84.10;;;;;;5054178;28;20500;-30
2024/01/17 05:28:49;;;;;;;14.15;6.38;;;0.30;84.10;;;;;;5053917;28;20026;-31
2024/01/17 05:31:15;;;;;;;10.13;5.60;;;0.30;84.10;;;;;;5054406;28;20021;-36
2024/01/17 05:33:41;;;;;;;9.98;6.00;;;0.30;84.10;;;;;;5054078;28;20455;-35
2024/01/17 05:36:07;;;;;;;9.52;5.35;;;0.30;84.10;;;;;;5054075;28;20029;-41
2024/01/17 05:38:33;;;;;;;10.25;5.90;;;0.30;84.10;;;;;;5054334;28;20040;-31
2024/01/17 05:40:59;;;;;;;10.45;5.93;;;0.30;84.10;;;;;;5054376;28;20025;-34
2024/01/17 05:43:25;;;;;;;10.82;5.72;;;0.20;84.00;;;;;;5054332;28;20386;-32
2024/01/17 05:45:50;;;;;;;10.35;6.13;;;0.20;84.00;;;;;;5054163;28;20028;-34
2024/01/17 05:48:17;;;;;;;11.32;6.15;;;0.20;84.10;;;;;;5053848;28;20450;-35
2024/01/17 05:50:44;;;;;;;10.27;6.43;;;0.20;84.10;;;;;;5053794;28;20057;-33
2024/01/17 05:53:10;;;;;;;9.15;6.57;;;0.20;84.20;;;;;;5054182;28;20402;-36
2024/01/17 05:55:36;;;;;;;10.25;6.13;;;0.20;84.10;;;;;;5053651;28;20049;-31
2024/01/17 05:58:02;;;;;;;10.57;6.60;;;0.20;84.20;;;;;;5053845;28;20032;-32
2024/01/17 06:00:27;;;;;;;11.55;6.85;;;0.20;84.20;;;;;;5053671;28;20448;-33
2024/01/17 06:02:54;;;;;;;13.43;6.72;;;0.10;84.30;;;;;;5053329;28;20075;-31
2024/01/17 06:05:19;;;;;;;13.23;6.45;;;0.10;84.40;;;;;;5053316;28;20060;-31
2024/01/17 06:07:45;;;;;;;11.13;6.35;;;0.20;84.40;;;;;;5051892;28;20068;-30
2024/01/17 06:10:13;;;;;;;10.98;6.40;;;0.10;84.40;;;;;;5053810;28;20504;-30
2024/01/17 06:12:40;;;;;;;13.18;6.50;;;0.10;84.40;;;;;;5053850;28;20029;-36
2024/01/17 06:15:06;;;;;;;13.02;7.32;;;0.10;84.50;;;;;;5053272;28;20056;-33
2024/01/17 06:17:32;;;;;;;12.95;6.70;;;0.10;84.40;;;;;;5053389;28;20564;-34
2024/01/17 06:19:58;;;;;;;13.80;7.47;;;0.10;84.50;;;;;;5053293;28;20116;-35
2024/01/17 06:22:23;;;;;;;12.45;6.18;;;0.10;84.50;;;;;;5053261;28;20032;-32
2024/01/17 06:24:49;;;;;;;11.75;7.32;;;0.10;84.50;;;;;;5053666;28;20025;-32
2024/01/17 06:27:15;;;;;;;11.45;6.47;;;0.10;84.60;;;;;;5052935;28;20478;-34
2024/01/17 06:29:44;;;;;;;11.73;5.97;;;0.10;84.60;;;;;;5053456;28;20032;-31
2024/01/17 06:32:10;;;;;;;10.25;6.28;;;0.10;84.60;;;;;;5053131;28;20025;-30
2024/01/17 06:34:36;;;;;;;12.85;7.10;;;0.10;84.60;;;;;;5052875;28;20118;-31
2024/01/17 06:37:03;;;;;;;10.40;6.50;;;0.10;84.60;;;;;;5053195;28;20047;-32
2024/01/17 06:39:30;;;;;;;13.90;6.28;;;0.10;84.60;;;;;;5053251;28;20037;-32
2024/01/17 06:41:56;;;;;;;11.93;6.63;;;0.10;84.60;;;;;;5052806;28;20492;-31
2024/01/17 06:44:21;;;;;;;11.20;6.97;;;0.10;84.60;;;;;;5052996;28;20102;-34
2024/01/17 06:46:47;;;;;;;9.35;6.07;;;0.10;84.70;;;;;;5052537;28;20385;-32
2024/01/17 06:49:13;;;;;;;12.18;6.45;;;0.00;84.70;;;;;;5052703;28;20063;-37
2024/01/17 06:51:39;;;;;;;11.80;6.65;;;0.00;84.80;;;;;;5052588;28;20566;-34
2024/01/17 06:54:04;;;;;;;10.77;6.82;;;0.10;84.80;;;;;;5053033;28;20048;-33
2024/01/17 06:56:32;;;;;;;12.07;6.93;;;0.00;84.70;;;;;;5052519;28;20025;-35
2024/01/17 06:58:58;;;;;;;14.93;7.18;;;0.00;84.70;;;;;;5052360;28;20033;-32
2024/01/17 07:01:24;;;;;;;12.10;6.63;;;0.00;84.60;;;;;;5051612;28;20404;-38
2024/01/17 07:03:50;;;;;;;11.02;6.50;;;0.00;84.70;;;;;;5052553;28;20025;-32
2024/01/17 07:06:15;;;;;;;14.32;7.40;;;0.00;84.70;;;;;;5052526;28;20060;-33
2024/01/17 07:08:41;;;;;;;11.02;6.25;;;0.00;84.60;;;;;;5052237;28;20029;-31
2024/01/17 07:11:10;;;;;;;11.82;6.85;;;0.00;84.70;;;;;;5052200;28;20025;-36
2024/01/17 07:13:37;;;;;;;9.25;6.15;;;-0.10;84.60;;;;;;5052280;28;20176;-34
2024/01/17 07:16:04;;;;;;;11.20;6.57;;;-0.10;84.50;;;;;;5052067;28;20029;-33
2024/01/17 07:18:29;;;;;;;9.35;5.93;;;0.00;84.60;;;;;;5052230;28;20025;-31
2024/01/17 07:20:55;;;;;;;10.45;6.43;;;0.00;84.50;;;;;;5052371;28;20039;-32
2024/01/17 07:23:20;;;;;;;13.32;6.20;;;-0.10;84.40;;;;;;5052101;28;20032;-35
2024/01/17 07:25:46;;;;;;;11.90;6.60;;;-0.10;84.50;;;;;;5052227;28;20040;-35
2024/01/17 07:28:13;;;;;;;10.02;6.28;;;-0.10;84.50;;;;;;5051957;28;20485;-33
2024/01/17 07:30:39;;;;;;;13.43;6.90;;;-0.10;84.50;;;;;;5052061;28;20028;-32
2024/01/17 07:33:04;;;;;;;10.00;6.32;;;0.00;84.60;;;;;;5051864;28;20029;-36
2024/01/17 07:35:30;;;;;;;11.35;6.30;;;0.00;84.50;;;;;;5051902;28;20078;-34
2024/01/17 07:37:58;;;;;;;10.05;6.35;;;0.00;84.50;;;;;;5051962;28;20470;-32
2024/01/17 07:40:24;;;;;;;15.05;6.70;;;0.00;84.40;;;;;;5051907;28;20033;-31
2024/01/17 07:42:49;;;;;;;8.80;5.78;;;0.00;84.40;;;;;;5052148;28;20120;-31
2024/01/17 07:45:15;;;;;;;10.30;6.07;;;0.10;84.40;;;;;;5051918;28;20039;-32
2024/01/17 07:47:40;;;;;;;10.15;5.85;;;0.00;84.20;;;;;;5051723;28;20103;-34
2024/01/17 07:50:09;;;;;;;10.30;5.97;;;0.10;84.20;;;;;;5051731;28;20025;-32
2024/01/17 07:52:34;;;;;;;8.07;5.45;;;0.00;84.10;;;;;;5051494;28;20112;-32
2024/01/17 07:55:00;;;;;;;11.13;5.38;;;0.00;84.10;;;;;;5052002;28;20082;-33
2024/01/17 07:57:26;;;;;;;9.63;5.30;;;0.00;84.10;;;;;;5051450;28;20021;-33
2024/01/17 07:59:51;;;;;;;10.90;5.97;;;0.00;84.30;;;;;;5051660;28;20036;-36
2024/01/17 08:02:17;;;;;;;8.52;5.40;;;0.00;84.40;;;;;;5051564;28;20031;-38
2024/01/17 08:04:43;;;;;;;9.00;5.90;;;-0.10;84.20;;;;;;5051413;28;20033;-34
2024/01/17 08:07:09;;;;;;;7.53;5.03;;;0.00;84.30;;;;;;5051301;28;20017;-31
2024/01/17 08:09:34;;;;;;;8.55;4.97;;;0.00;84.30;;;;;;5051300;28;20017;-31
2024/01/17 08:12:00;;;;;;;10.32;5.65;;;0.00;84.30;;;;;;5051500;28;20546;-33
2024/01/17 08:14:26;;;;;;;10.38;6.03;;;0.00;84.20;;;;;;5051607;28;20066;-34
2024/01/17 08:16:52;;;;;;;8.75;5.82;;;0.00;84.20;;;;;;5051495;28;20025;-34
2024/01/17 08:19:18;;;;;;;14.00;5.95;;;0.10;84.20;;;;;;5051441;28;20029;-34
2024/01/17 08:21:44;;;;;;;10.50;5.90;;;0.10;84.20;;;;;;5051398;28;20135;-36
2024/01/17 08:24:10;;;;;;;10.20;5.80;;;0.10;84.20;;;;;;5051402;28;20033;-36
2024/01/17 08:26:38;;;;;;;10.18;5.65;;;0.10;84.20;;;;;;5050992;28;20025;-35
2024/01/17 08:29:04;;;;;;;11.02;5.43;;;0.20;84.10;;;;;;5051181;28;20074;-31
2024/01/17 08:31:30;;;;;;;12.38;6.47;;;0.20;84.00;;;;;;5051545;28;20079;-31
2024/01/17 08:33:56;;;;;;;9.10;5.72;;;0.30;83.90;;;;;;5050080;28;20456;-31
2024/01/17 08:36:23;;;;;;;9.32;5.70;;;0.30;83.90;;;;;;5051203;28;20500;-32
2024/01/17 08:38:48;;;;;;;10.52;6.07;;;0.30;83.70;;;;;;5051394;28;20489;-33
2024/01/17 08:41:18;;;;;;;9.00;6.05;;;0.30;83.70;;;;;;5051086;28;20025;-34
2024/01/17 08:43:44;;;;;;;13.40;6.97;;;0.40;83.60;;;;;;5051243;28;20079;-31
2024/01/17 08:46:11;;;;;;;11.05;6.00;;;0.40;83.60;;;;;;5050952;28;20033;-35
2024/01/17 08:48:37;;;;;;;12.20;6.45;;;0.40;83.50;;;;;;5050635;28;20025;-34
2024/01/17 08:51:03;;;;;;;12.70;7.10;;;0.40;83.40;;;;;;5049388;28;20021;-31
2024/01/17 08:53:31;;;;;;;11.40;6.20;;;0.50;83.40;;;;;;5050166;28;20017;-33
2024/01/17 08:55:57;;;;;;;12.02;6.63;;;0.50;83.30;;;;;;5049705;28;20029;-31
2024/01/17 08:58:23;;;;;;;12.02;5.45;;;0.50;83.10;;;;;;5049477;28;20358;-31
2024/01/17 09:00:49;;;;;;;9.40;5.80;;;0.50;83.10;;;;;;5049778;28;20179;-31
2024/01/17 09:03:15;;;;;;;11.95;6.03;;;0.50;83.20;;;;;;5050607;28;20070;-32
2024/01/17 09:05:40;;;;;;;8.75;5.28;;;0.50;83.20;;;;;;5050860;28;20116;-31
2024/01/17 09:08:07;;;;;;;10.93;6.15;;;0.50;83.30;;;;;;5050787;28;20470;-32
2024/01/17 09:10:33;;;;;;;10.70;6.10;;;0.50;83.30;;;;;;5050884;28;20035;-37
2024/01/17 09:12:58;;;;;;;9.70;6.30;;;0.50;83.30;;;;;;5050748;28;20259;-31
2024/01/17 09:15:24;;;;;;;11.68;6.97;;;0.50;83.60;;;;;;5050619;28;20079;-33
2024/01/17 09:17:49;;;;;;;11.23;5.97;;;0.60;83.70;;;;;;5050881;28;20025;-32
2024/01/17 09:20:15;;;;;;;11.75;6.55;;;0.60;83.50;;;;;;5050930;28;20033;-32
2024/01/17 09:22:41;;;;;;;11.98;6.28;;;0.60;84.00;;;;;;5050957;28;20083;-32
2024/01/17 09:25:08;;;;;;;11.43;5.63;;;0.70;83.30;;;;;;5053606;28;20029;-33
2024/01/17 09:27:34;;;;;;;14.77;7.03;;;0.70;83.20;;;;;;5054429;28;20116;-36
2024/01/17 09:29:59;;;;;;;12.93;7.28;;;0.70;83.10;;;;;;5054690;28;20067;-31
2024/01/17 09:32:25;;;;;;;14.20;6.03;;;0.80;83.10;;;;;;5052943;28;20033;-32
2024/01/17 09:34:51;;;;;;;14.35;6.05;;;0.80;83.00;;;;;;5054301;28;20128;-32
2024/01/17 09:37:17;;;;;;;14.52;7.00;;;0.80;82.90;;;;;;5053996;28;20028;-31
2024/01/17 09:39:47;;;;;;;15.13;7.68;;;0.80;82.90;;;;;;5052900;28;20025;-32
2024/01/17 09:42:14;;;;;;;16.77;7.75;;;0.90;83.00;;;;;;5054073;28;20033;-32
2024/01/17 09:44:40;;;;;;;14.18;7.65;;;0.90;82.90;;;;;;5054029;28;20028;-31
2024/01/17 09:47:08;;;;;;;16.05;8.02;;;1.00;82.80;;;;;;5053740;28;20029;-32
2024/01/17 09:49:35;;;;;;;12.40;7.30;;;1.00;82.70;;;;;;5054246;28;20462;-33
2024/01/17 09:52:05;;;;;;;11.30;6.35;;;1.10;82.70;;;;;;5054188;28;20087;-41
2024/01/17 09:54:40;;;;;;;9.73;6.32;;;1.10;82.60;;;;;;5054098;28;20497;-38
2024/01/17 09:57:09;;;;;;;13.40;6.72;;;1.20;82.60;;;;;;5053716;28;20104;-32
2024/01/17 09:59:50;;;;;;;13.88;7.63;;;1.20;82.60;;;;;;5053659;28;20099;-38
2024/01/17 10:02:18;;;;;;;13.93;7.07;;;1.30;82.30;;;;;;5053549;28;20349;-36
2024/01/17 10:04:45;;;;;;;10.63;6.07;;;1.30;82.20;;;;;;5053697;28;20031;-41
2024/01/17 10:07:12;;;;;;;12.48;6.85;;;1.30;82.20;;;;;;5052250;28;20100;-43
2024/01/17 10:09:39;;;;;;;10.60;5.90;;;1.30;82.00;;;;;;5053360;28;20021;-36
2024/01/17 10:12:05;;;;;;;9.55;5.88;;;1.30;82.00;;;;;;5053479;28;20013;-38
2024/01/17 10:14:31;;;;;;;12.68;6.18;;;1.30;82.00;;;;;;5053801;28;20362;-37
2024/01/17 10:16:57;;;;;;;14.05;6.85;;;1.40;82.00;;;;;;5053390;28;20017;-34
2024/01/17 10:19:26;;;;;;;13.73;6.88;;;1.40;82.00;;;;;;5053686;28;20059;-40
2024/01/17 10:21:52;;;;;;;12.45;6.82;;;1.40;81.90;;;;;;5053209;28;20032;-33
2024/01/17 10:24:18;;;;;;;13.23;7.10;;;1.50;81.80;;;;;;5053317;28;20033;-31
2024/01/17 10:26:44;;;;;;;12.65;7.28;;;1.60;81.70;;;;;;5053163;28;20025;-34
2024/01/17 10:29:13;;;;;;;10.95;6.80;;;1.60;82.20;;;;;;5053417;28;20067;-34
2024/01/17 10:31:39;;;;;;;10.93;6.68;;;1.70;81.50;;;;;;5053446;28;20032;-32
2024/01/17 10:34:07;;;;;;;11.68;6.82;;;1.70;81.50;;;;;;5053205;28;20401;-37
2024/01/17 10:36:33;;;;;;;10.88;7.20;;;1.80;81.30;;;;;;5051849;28;20167;-33
2024/01/17 10:39:06;;;;;;;14.30;7.22;;;1.80;81.10;;;;;;5053316;28;20049;-31
2024/01/17 10:41:32;;;;;;;11.30;6.97;;;1.80;81.00;;;;;;5052953;28;20040;-30
2024/01/17 10:44:02;;;;;;;14.52;6.95;;;1.80;81.00;;;;;;5053106;28;20096;-31
2024/01/17 10:46:28;;;;;;;15.25;7.03;;;1.80;81.00;;;;;;5053192;28;20094;-31
2024/01/17 10:48:54;;;;;;;10.93;6.82;;;1.90;81.00;;;;;;5052847;28;20029;-33
2024/01/17 10:51:21;;;;;;;13.68;7.55;;;1.90;81.00;;;;;;5053113;28;20049;-34
2024/01/17 10:53:50;;;;;;;11.88;7.32;;;2.00;81.00;;;;;;5052776;28;20017;-31
2024/01/17 10:56:20;;;;;;;15.40;7.78;;;2.00;80.80;;;;;;5052878;28;20516;-39
2024/01/17 10:58:50;;;;;;;13.50;6.50;;;2.10;80.80;;;;;;5051180;28;20021;-34
2024/01/17 11:01:31;;;;;;;10.50;6.60;;;2.10;80.60;;;;;;5052418;28;20028;-32
2024/01/17 11:04:07;;;;;;;11.50;6.78;;;2.10;80.50;;;;;;5052780;28;20473;-31
2024/01/17 11:06:34;;;;;;;13.13;6.45;;;2.20;80.50;;;;;;5052313;28;20025;-31
2024/01/17 11:09:01;;;;;;;12.57;6.75;;;2.20;80.50;;;;;;5052735;28;20028;-35
2024/01/17 11:11:28;;;;;;;13.38;7.07;;;2.20;80.50;;;;;;5052636;28;20527;-32
2024/01/17 11:13:55;;;;;;;14.05;7.60;;;2.20;80.30;;;;;;5052745;28;20506;-31
2024/01/17 11:16:21;;;;;;;10.85;6.30;;;2.20;80.20;;;;;;5052651;28;20029;-31
2024/01/17 11:18:50;;;;;;;11.65;7.20;;;2.20;80.10;;;;;;5052220;28;20028;-32
2024/01/17 11:21:19;;;;;;;13.15;7.25;;;2.20;80.20;;;;;;5052014;28;20032;-31
2024/01/17 11:23:53;;;;;;;12.05;7.35;;;2.20;80.10;;;;;;5052416;28;20487;-34
2024/01/17 11:26:35;;;;;;;10.95;6.93;;;2.20;80.10;;;;;;5052353;28;20033;-35
2024/01/17 11:29:09;;;;;;;13.25;6.80;;;2.20;80.00;;;;;;5052100;28;20017;-34
2024/01/17 11:31:56;;;;;;;11.68;7.13;;;2.30;80.10;;;;;;5052015;28;20025;-32
2024/01/17 11:34:22;;;;;;;11.32;6.15;;;2.30;80.00;;;;;;5051913;28;20132;-33
2024/01/17 11:36:48;;;;;;;9.27;5.88;;;2.30;79.90;;;;;;5052105;28;20048;-31
2024/01/17 11:39:16;;;;;;;11.70;6.43;;;2.40;79.90;;;;;;5052276;28;20104;-32
2024/01/17 11:41:45;;;;;;;8.52;5.80;;;2.40;79.80;;;;;;5052322;28;20029;-34
2024/01/17 11:44:12;;;;;;;12.00;6.53;;;2.40;79.70;;;;;;5052294;28;20021;-32
2024/01/17 11:46:38;;;;;;;13.57;6.95;;;2.50;79.70;;;;;;5051585;28;20044;-33
2024/01/17 11:49:05;;;;;;;11.93;6.90;;;2.50;79.60;;;;;;5051936;28;20052;-34
2024/01/17 11:51:32;;;;;;;11.48;6.68;;;2.50;79.50;;;;;;5051999;28;20021;-35
2024/01/17 11:53:58;;;;;;;13.63;7.18;;;2.60;79.30;;;;;;5052208;28;20055;-34
2024/01/17 11:56:26;;;;;;;10.55;6.95;;;2.60;79.30;;;;;;5051591;28;20457;-34
2024/01/17 11:58:57;;;;;;;12.20;7.60;;;2.60;79.20;;;;;;5051516;28;20021;-31
2024/01/17 12:01:23;;;;;;;12.45;6.85;;;2.60;79.00;;;;;;5051754;28;20116;-33
2024/01/17 12:03:50;;;;;;;12.88;6.82;;;2.70;79.00;;;;;;5051820;28;20382;-31
2024/01/17 12:06:17;;;;;;;9.57;6.45;;;2.60;78.70;;;;;;5051595;28;20021;-33
2024/01/17 12:08:44;;;;;;;11.18;6.68;;;2.60;78.80;;;;;;5051717;28;20025;-35
2024/01/17 12:11:10;;;;;;;12.88;6.80;;;2.60;78.80;;;;;;5051455;28;20104;-33
2024/01/17 12:13:36;;;;;;;10.88;6.38;;;2.70;78.80;;;;;;5051722;28;20052;-31
2024/01/17 12:16:02;;;;;;;11.23;6.97;;;2.70;78.70;;;;;;5051339;28;20027;-32
2024/01/17 12:18:28;;;;;;;12.77;7.90;;;2.70;78.70;;;;;;5051734;28;20017;-34
2024/01/17 12:20:54;;;;;;;9.73;6.32;;;2.70;78.60;;;;;;5051402;28;20495;-35
2024/01/17 12:23:22;;;;;;;11.02;6.50;;;2.80;78.60;;;;;;5051696;28;20485;-33
2024/01/17 12:25:48;;;;;;;11.15;7.13;;;2.80;78.50;;;;;;5051513;28;20025;-33
2024/01/17 12:28:22;;;;;;;10.82;6.50;;;2.90;78.50;;;;;;5051181;28;20074;-32
2024/01/17 12:31:17;;;;;;;10.82;7.10;;;2.90;78.50;;;;;;5050275;28;20374;-33
2024/01/17 12:33:44;;;;;;;11.05;6.10;;;2.90;78.40;;;;;;5050410;28;20037;-31
2024/01/17 12:36:10;;;;;;;13.40;7.35;;;2.90;78.40;;;;;;5051056;28;20078;-32
2024/01/17 12:38:39;;;;;;;11.93;6.95;;;3.00;78.40;;;;;;5051584;28;20033;-34
2024/01/17 12:41:05;;;;;;;10.77;6.65;;;3.00;78.30;;;;;;5051623;28;20021;-33
2024/01/17 12:43:33;;;;;;;12.70;7.30;;;3.10;78.30;;;;;;5051248;28;20029;-33